sensor_id;sensor_type;location;lat;lon;timestamp;temperature;humidity
35463;DHT22;21578;47.892;9.970;2023-05-29T00:00:21;14.00;77.90
35463;DHT22;21578;47.892;9.970;2023-05-29T00:05:09;14.00;78.00
35463;DHT22;21578;47.892;9.970;2023-05-29T00:09:58;13.90;77.70
35463;DHT22;21578;47.892;9.970;2023-05-29T00:14:45;14.00;77.10
35463;DHT22;21578;47.892;9.970;2023-05-29T00:19:32;13.90;77.00
35463;DHT22;21578;47.892;9.970;2023-05-29T00:24:19;13.90;77.40
35463;DHT22;21578;47.892;9.970;2023-05-29T00:29:07;13.90;78.00
35463;DHT22;21578;47.892;9.970;2023-05-29T00:33:54;13.90;77.80
35463;DHT22;21578;47.892;9.970;2023-05-29T00:38:41;13.80;78.30
35463;DHT22;21578;47.892;9.970;2023-05-29T00:43:28;13.70;78.90
35463;DHT22;21578;47.892;9.970;2023-05-29T00:48:16;13.70;79.00
35463;DHT22;21578;47.892;9.970;2023-05-29T00:53:04;13.50;79.30
35463;DHT22;21578;47.892;9.970;2023-05-29T00:57:51;13.50;78.90
35463;DHT22;21578;47.892;9.970;2023-05-29T01:02:39;13.40;78.80
35463;DHT22;21578;47.892;9.970;2023-05-29T01:07:31;13.40;78.60
35463;DHT22;21578;47.892;9.970;2023-05-29T01:12:30;13.30;77.90
35463;DHT22;21578;47.892;9.970;2023-05-29T01:17:24;13.30;77.30
35463;DHT22;21578;47.892;9.970;2023-05-29T01:22:24;13.30;77.90
35463;DHT22;21578;47.892;9.970;2023-05-29T01:27:15;13.20;78.70
35463;DHT22;21578;47.892;9.970;2023-05-29T01:32:05;13.20;78.30
35463;DHT22;21578;47.892;9.970;2023-05-29T01:36:52;13.10;79.20
35463;DHT22;21578;47.892;9.970;2023-05-29T01:41:39;12.90;79.80
35463;DHT22;21578;47.892;9.970;2023-05-29T01:46:27;12.90;80.40
35463;DHT22;21578;47.892;9.970;2023-05-29T01:51:15;12.90;81.10
35463;DHT22;21578;47.892;9.970;2023-05-29T01:56:02;12.70;81.00
35463;DHT22;21578;47.892;9.970;2023-05-29T02:01:00;12.70;80.70
35463;DHT22;21578;47.892;9.970;2023-05-29T02:05:50;12.60;80.70
35463;DHT22;21578;47.892;9.970;2023-05-29T02:10:37;12.50;81.80
35463;DHT22;21578;47.892;9.970;2023-05-29T02:15:24;12.40;82.50
35463;DHT22;21578;47.892;9.970;2023-05-29T02:20:11;12.40;82.90
35463;DHT22;21578;47.892;9.970;2023-05-29T02:24:59;12.40;83.00
35463;DHT22;21578;47.892;9.970;2023-05-29T02:29:46;12.20;83.50
35463;DHT22;21578;47.892;9.970;2023-05-29T02:34:33;12.20;83.40
35463;DHT22;21578;47.892;9.970;2023-05-29T02:39:20;12.20;83.00
35463;DHT22;21578;47.892;9.970;2023-05-29T02:44:08;12.20;82.00
35463;DHT22;21578;47.892;9.970;2023-05-29T02:48:55;12.20;82.30
35463;DHT22;21578;47.892;9.970;2023-05-29T02:53:42;12.00;82.70
35463;DHT22;21578;47.892;9.970;2023-05-29T02:58:29;11.90;83.10
35463;DHT22;21578;47.892;9.970;2023-05-29T03:03:20;11.90;83.30
35463;DHT22;21578;47.892;9.970;2023-05-29T03:08:06;11.90;83.20
35463;DHT22;21578;47.892;9.970;2023-05-29T03:12:53;12.00;82.30
35463;DHT22;21578;47.892;9.970;2023-05-29T03:17:41;12.30;81.50
35463;DHT22;21578;47.892;9.970;2023-05-29T03:22:29;12.30;81.30
35463;DHT22;21578;47.892;9.970;2023-05-29T03:27:16;12.10;82.00
35463;DHT22;21578;47.892;9.970;2023-05-29T03:32:03;12.00;82.60
35463;DHT22;21578;47.892;9.970;2023-05-29T03:36:50;12.00;83.00
35463;DHT22;21578;47.892;9.970;2023-05-29T03:41:38;11.80;83.40
35463;DHT22;21578;47.892;9.970;2023-05-29T03:46:25;11.80;83.90
35463;DHT22;21578;47.892;9.970;2023-05-29T03:51:12;11.80;84.40
35463;DHT22;21578;47.892;9.970;2023-05-29T03:55:59;11.80;84.30
35463;DHT22;21578;47.892;9.970;2023-05-29T04:00:48;11.80;84.40
35463;DHT22;21578;47.892;9.970;2023-05-29T04:05:35;11.80;84.20
35463;DHT22;21578;47.892;9.970;2023-05-29T04:10:21;11.70;84.90
35463;DHT22;21578;47.892;9.970;2023-05-29T04:15:09;11.80;84.80
35463;DHT22;21578;47.892;9.970;2023-05-29T04:19:57;11.70;85.10
35463;DHT22;21578;47.892;9.970;2023-05-29T04:24:45;11.70;85.40
35463;DHT22;21578;47.892;9.970;2023-05-29T04:29:32;11.70;86.00
35463;DHT22;21578;47.892;9.970;2023-05-29T04:34:20;11.70;86.20
35463;DHT22;21578;47.892;9.970;2023-05-29T04:39:08;11.70;86.00
35463;DHT22;21578;47.892;9.970;2023-05-29T04:43:55;11.80;86.40
35463;DHT22;21578;47.892;9.970;2023-05-29T04:48:42;11.90;86.20
35463;DHT22;21578;47.892;9.970;2023-05-29T04:53:29;12.00;85.30
35463;DHT22;21578;47.892;9.970;2023-05-29T04:58:18;12.10;85.60
35463;DHT22;21578;47.892;9.970;2023-05-29T05:03:04;12.40;84.30
35463;DHT22;21578;47.892;9.970;2023-05-29T05:07:51;12.60;83.70
35463;DHT22;21578;47.892;9.970;2023-05-29T05:12:38;12.70;82.80
35463;DHT22;21578;47.892;9.970;2023-05-29T05:17:26;12.80;82.50
35463;DHT22;21578;47.892;9.970;2023-05-29T05:22:13;12.90;82.70
35463;DHT22;21578;47.892;9.970;2023-05-29T05:27:00;13.00;82.40
35463;DHT22;21578;47.892;9.970;2023-05-29T05:31:47;13.00;82.90
35463;DHT22;21578;47.892;9.970;2023-05-29T05:36:35;13.10;83.00
35463;DHT22;21578;47.892;9.970;2023-05-29T05:41:22;13.20;83.00
35463;DHT22;21578;47.892;9.970;2023-05-29T05:46:10;13.30;83.10
35463;DHT22;21578;47.892;9.970;2023-05-29T05:50:58;13.50;83.50
35463;DHT22;21578;47.892;9.970;2023-05-29T05:55:46;13.60;83.20
35463;DHT22;21578;47.892;9.970;2023-05-29T06:00:33;13.70;82.80
35463;DHT22;21578;47.892;9.970;2023-05-29T06:05:20;13.80;82.60
35463;DHT22;21578;47.892;9.970;2023-05-29T06:10:07;13.90;82.50
35463;DHT22;21578;47.892;9.970;2023-05-29T06:14:56;14.00;82.20
35463;DHT22;21578;47.892;9.970;2023-05-29T06:19:43;14.20;82.30
35463;DHT22;21578;47.892;9.970;2023-05-29T06:24:29;14.40;81.80
35463;DHT22;21578;47.892;9.970;2023-05-29T06:29:16;14.50;81.20
35463;DHT22;21578;47.892;9.970;2023-05-29T06:34:04;14.60;81.40
35463;DHT22;21578;47.892;9.970;2023-05-29T06:38:51;14.70;81.10
35463;DHT22;21578;47.892;9.970;2023-05-29T06:43:38;14.90;81.60
35463;DHT22;21578;47.892;9.970;2023-05-29T06:48:25;15.10;81.20
35463;DHT22;21578;47.892;9.970;2023-05-29T06:53:14;15.30;80.10
35463;DHT22;21578;47.892;9.970;2023-05-29T06:58:01;15.50;79.80
35463;DHT22;21578;47.892;9.970;2023-05-29T07:02:48;15.70;78.10
35463;DHT22;21578;47.892;9.970;2023-05-29T07:07:36;15.90;77.90
35463;DHT22;21578;47.892;9.970;2023-05-29T07:12:25;16.00;79.10
35463;DHT22;21578;47.892;9.970;2023-05-29T07:17:12;16.20;77.90
35463;DHT22;21578;47.892;9.970;2023-05-29T07:21:58;16.30;77.20
35463;DHT22;21578;47.892;9.970;2023-05-29T07:26:46;16.50;76.60
35463;DHT22;21578;47.892;9.970;2023-05-29T07:31:34;16.60;76.90
35463;DHT22;21578;47.892;9.970;2023-05-29T07:36:21;16.70;76.70
35463;DHT22;21578;47.892;9.970;2023-05-29T07:41:08;16.90;77.20
35463;DHT22;21578;47.892;9.970;2023-05-29T07:45:55;17.10;77.30
35463;DHT22;21578;47.892;9.970;2023-05-29T07:50:43;17.30;76.40
35463;DHT22;21578;47.892;9.970;2023-05-29T07:55:30;17.30;75.20
35463;DHT22;21578;47.892;9.970;2023-05-29T08:00:17;17.40;76.20
35463;DHT22;21578;47.892;9.970;2023-05-29T08:05:05;17.50;74.80
35463;DHT22;21578;47.892;9.970;2023-05-29T08:09:54;17.50;76.20
35463;DHT22;21578;47.892;9.970;2023-05-29T08:14:41;17.60;75.20
35463;DHT22;21578;47.892;9.970;2023-05-29T08:19:28;17.70;73.80
35463;DHT22;21578;47.892;9.970;2023-05-29T08:24:15;17.90;75.50
35463;DHT22;21578;47.892;9.970;2023-05-29T08:29:04;17.80;75.20
35463;DHT22;21578;47.892;9.970;2023-05-29T08:33:51;18.10;77.90
35463;DHT22;21578;47.892;9.970;2023-05-29T08:38:38;18.00;77.90
35463;DHT22;21578;47.892;9.970;2023-05-29T08:43:28;18.00;78.70
35463;DHT22;21578;47.892;9.970;2023-05-29T08:48:18;18.20;79.20
35463;DHT22;21578;47.892;9.970;2023-05-29T08:53:09;18.40;76.50
35463;DHT22;21578;47.892;9.970;2023-05-29T08:57:56;18.60;75.20
35463;DHT22;21578;47.892;9.970;2023-05-29T09:02:44;18.80;73.30
35463;DHT22;21578;47.892;9.970;2023-05-29T09:07:32;19.00;72.70
35463;DHT22;21578;47.892;9.970;2023-05-29T09:12:19;19.10;70.20
35463;DHT22;21578;47.892;9.970;2023-05-29T09:17:07;19.20;71.80
35463;DHT22;21578;47.892;9.970;2023-05-29T09:22:00;19.50;71.20
35463;DHT22;21578;47.892;9.970;2023-05-29T09:26:50;19.70;69.20
35463;DHT22;21578;47.892;9.970;2023-05-29T09:31:41;19.70;69.00
35463;DHT22;21578;47.892;9.970;2023-05-29T09:36:32;19.90;69.30
35463;DHT22;21578;47.892;9.970;2023-05-29T09:41:22;19.80;68.60
35463;DHT22;21578;47.892;9.970;2023-05-29T09:46:15;19.80;67.90
35463;DHT22;21578;47.892;9.970;2023-05-29T09:51:03;20.00;67.40
35463;DHT22;21578;47.892;9.970;2023-05-29T09:55:52;19.90;67.90
35463;DHT22;21578;47.892;9.970;2023-05-29T10:00:40;20.20;67.60
35463;DHT22;21578;47.892;9.970;2023-05-29T10:05:29;20.30;66.40
35463;DHT22;21578;47.892;9.970;2023-05-29T10:10:17;20.50;66.30
35463;DHT22;21578;47.892;9.970;2023-05-29T10:15:09;20.80;64.30
35463;DHT22;21578;47.892;9.970;2023-05-29T10:19:58;20.90;64.20
35463;DHT22;21578;47.892;9.970;2023-05-29T10:24:50;21.10;62.80
35463;DHT22;21578;47.892;9.970;2023-05-29T10:29:41;21.20;63.20
35463;DHT22;21578;47.892;9.970;2023-05-29T10:34:36;21.10;62.90
35463;DHT22;21578;47.892;9.970;2023-05-29T10:39:25;21.10;62.20
35463;DHT22;21578;47.892;9.970;2023-05-29T10:44:38;21.10;62.30
35463;DHT22;21578;47.892;9.970;2023-05-29T10:49:26;21.30;62.50
35463;DHT22;21578;47.892;9.970;2023-05-29T10:54:13;21.30;61.90
35463;DHT22;21578;47.892;9.970;2023-05-29T10:59:02;21.10;61.60
35463;DHT22;21578;47.892;9.970;2023-05-29T11:03:50;21.30;62.70
35463;DHT22;21578;47.892;9.970;2023-05-29T11:08:42;21.60;60.30
35463;DHT22;21578;47.892;9.970;2023-05-29T11:13:32;21.70;61.40
35463;DHT22;21578;47.892;9.970;2023-05-29T11:18:21;22.00;59.20
35463;DHT22;21578;47.892;9.970;2023-05-29T11:23:15;22.00;59.40
35463;DHT22;21578;47.892;9.970;2023-05-29T11:28:04;22.10;56.70
35463;DHT22;21578;47.892;9.970;2023-05-29T11:32:54;22.00;58.20
35463;DHT22;21578;47.892;9.970;2023-05-29T11:37:47;22.10;59.10
35463;DHT22;21578;47.892;9.970;2023-05-29T11:42:41;22.10;60.50
35463;DHT22;21578;47.892;9.970;2023-05-29T11:47:29;22.20;57.40
35463;DHT22;21578;47.892;9.970;2023-05-29T11:52:16;22.30;55.90
35463;DHT22;21578;47.892;9.970;2023-05-29T11:57:08;22.20;57.20
35463;DHT22;21578;47.892;9.970;2023-05-29T12:01:56;22.50;58.30
35463;DHT22;21578;47.892;9.970;2023-05-29T12:06:43;23.10;55.60
35463;DHT22;21578;47.892;9.970;2023-05-29T12:11:30;23.20;55.40
35463;DHT22;21578;47.892;9.970;2023-05-29T12:16:17;23.40;53.70
35463;DHT22;21578;47.892;9.970;2023-05-29T12:21:05;23.40;55.10
35463;DHT22;21578;47.892;9.970;2023-05-29T12:25:52;23.40;53.90
35463;DHT22;21578;47.892;9.970;2023-05-29T12:30:40;23.50;54.50
35463;DHT22;21578;47.892;9.970;2023-05-29T12:35:29;23.70;52.60
35463;DHT22;21578;47.892;9.970;2023-05-29T12:40:19;23.20;54.30
35463;DHT22;21578;47.892;9.970;2023-05-29T12:45:07;23.60;54.00
35463;DHT22;21578;47.892;9.970;2023-05-29T12:49:55;23.80;54.70
35463;DHT22;21578;47.892;9.970;2023-05-29T12:54:42;24.20;53.30
35463;DHT22;21578;47.892;9.970;2023-05-29T12:59:30;24.10;53.90
35463;DHT22;21578;47.892;9.970;2023-05-29T13:04:17;23.90;53.60
35463;DHT22;21578;47.892;9.970;2023-05-29T13:09:04;24.00;55.60
35463;DHT22;21578;47.892;9.970;2023-05-29T13:13:53;23.90;55.80
35463;DHT22;21578;47.892;9.970;2023-05-29T13:18:41;23.30;54.90
35463;DHT22;21578;47.892;9.970;2023-05-29T13:23:28;23.50;56.40
35463;DHT22;21578;47.892;9.970;2023-05-29T13:28:15;24.00;55.50
35463;DHT22;21578;47.892;9.970;2023-05-29T13:33:02;24.80;53.60
35463;DHT22;21578;47.892;9.970;2023-05-29T13:37:50;24.30;52.00
35463;DHT22;21578;47.892;9.970;2023-05-29T13:42:37;24.00;53.00
35463;DHT22;21578;47.892;9.970;2023-05-29T13:47:24;24.00;52.00
35463;DHT22;21578;47.892;9.970;2023-05-29T13:52:14;23.60;53.70
35463;DHT22;21578;47.892;9.970;2023-05-29T13:57:04;24.30;52.70
35463;DHT22;21578;47.892;9.970;2023-05-29T14:01:51;23.90;50.30
35463;DHT22;21578;47.892;9.970;2023-05-29T14:06:38;24.00;49.50
35463;DHT22;21578;47.892;9.970;2023-05-29T14:11:26;24.00;53.00
35463;DHT22;21578;47.892;9.970;2023-05-29T14:16:15;24.30;51.10
35463;DHT22;21578;47.892;9.970;2023-05-29T14:21:02;24.60;51.40
35463;DHT22;21578;47.892;9.970;2023-05-29T14:25:49;24.80;46.40
35463;DHT22;21578;47.892;9.970;2023-05-29T14:30:36;24.60;47.60
35463;DHT22;21578;47.892;9.970;2023-05-29T14:35:25;24.90;45.50
35463;DHT22;21578;47.892;9.970;2023-05-29T14:40:12;25.10;47.60
35463;DHT22;21578;47.892;9.970;2023-05-29T14:44:59;25.10;48.00
35463;DHT22;21578;47.892;9.970;2023-05-29T14:49:46;25.40;48.30
35463;DHT22;21578;47.892;9.970;2023-05-29T14:54:34;25.40;47.30
35463;DHT22;21578;47.892;9.970;2023-05-29T14:59:21;24.30;49.00
35463;DHT22;21578;47.892;9.970;2023-05-29T15:04:09;24.60;46.90
35463;DHT22;21578;47.892;9.970;2023-05-29T15:08:57;24.80;47.80
35463;DHT22;21578;47.892;9.970;2023-05-29T15:13:46;25.10;47.30
35463;DHT22;21578;47.892;9.970;2023-05-29T15:18:33;25.30;48.80
35463;DHT22;21578;47.892;9.970;2023-05-29T15:23:21;25.30;48.90
35463;DHT22;21578;47.892;9.970;2023-05-29T15:28:08;25.20;48.80
35463;DHT22;21578;47.892;9.970;2023-05-29T15:32:56;25.50;49.60
35463;DHT22;21578;47.892;9.970;2023-05-29T15:37:43;25.90;50.10
35463;DHT22;21578;47.892;9.970;2023-05-29T15:42:31;25.60;48.50
35463;DHT22;21578;47.892;9.970;2023-05-29T15:47:18;25.00;49.60
35463;DHT22;21578;47.892;9.970;2023-05-29T15:52:06;25.00;50.70
35463;DHT22;21578;47.892;9.970;2023-05-29T15:56:53;25.30;51.00
35463;DHT22;21578;47.892;9.970;2023-05-29T16:01:40;25.30;51.30
35463;DHT22;21578;47.892;9.970;2023-05-29T16:06:27;24.60;53.60
35463;DHT22;21578;47.892;9.970;2023-05-29T16:11:15;25.30;52.90
35463;DHT22;21578;47.892;9.970;2023-05-29T16:16:02;25.40;52.10
35463;DHT22;21578;47.892;9.970;2023-05-29T16:20:49;25.10;51.90
35463;DHT22;21578;47.892;9.970;2023-05-29T16:25:36;24.80;52.10
35463;DHT22;21578;47.892;9.970;2023-05-29T16:30:24;24.80;51.90
35463;DHT22;21578;47.892;9.970;2023-05-29T16:35:11;25.10;52.70
35463;DHT22;21578;47.892;9.970;2023-05-29T16:39:59;24.80;53.80
35463;DHT22;21578;47.892;9.970;2023-05-29T16:44:46;24.90;53.70
35463;DHT22;21578;47.892;9.970;2023-05-29T16:49:34;24.70;53.80
35463;DHT22;21578;47.892;9.970;2023-05-29T16:54:21;25.20;52.10
35463;DHT22;21578;47.892;9.970;2023-05-29T16:59:08;25.40;51.90
35463;DHT22;21578;47.892;9.970;2023-05-29T17:03:55;25.40;51.60
35463;DHT22;21578;47.892;9.970;2023-05-29T17:08:43;25.50;52.20
35463;DHT22;21578;47.892;9.970;2023-05-29T17:13:30;25.70;52.40
35463;DHT22;21578;47.892;9.970;2023-05-29T17:18:17;25.80;51.90
35463;DHT22;21578;47.892;9.970;2023-05-29T17:23:04;25.40;52.40
35463;DHT22;21578;47.892;9.970;2023-05-29T17:27:52;25.30;52.60
35463;DHT22;21578;47.892;9.970;2023-05-29T17:32:40;25.00;52.70
35463;DHT22;21578;47.892;9.970;2023-05-29T17:37:27;25.10;53.20
35463;DHT22;21578;47.892;9.970;2023-05-29T17:42:14;25.40;53.50
35463;DHT22;21578;47.892;9.970;2023-05-29T17:47:02;24.90;54.20
35463;DHT22;21578;47.892;9.970;2023-05-29T17:51:49;25.00;54.50
35463;DHT22;21578;47.892;9.970;2023-05-29T17:56:36;24.90;54.40
35463;DHT22;21578;47.892;9.970;2023-05-29T18:01:23;24.70;54.40
35463;DHT22;21578;47.892;9.970;2023-05-29T18:06:12;24.40;54.70
35463;DHT22;21578;47.892;9.970;2023-05-29T18:10:58;24.30;54.80
35463;DHT22;21578;47.892;9.970;2023-05-29T18:15:45;24.00;56.30
35463;DHT22;21578;47.892;9.970;2023-05-29T18:20:32;23.80;56.70
35463;DHT22;21578;47.892;9.970;2023-05-29T18:25:20;23.70;57.00
35463;DHT22;21578;47.892;9.970;2023-05-29T18:30:09;23.50;57.20
35463;DHT22;21578;47.892;9.970;2023-05-29T18:34:56;23.10;58.30
35463;DHT22;21578;47.892;9.970;2023-05-29T18:39:43;22.80;59.30
35463;DHT22;21578;47.892;9.970;2023-05-29T18:44:31;22.30;60.20
35463;DHT22;21578;47.892;9.970;2023-05-29T18:49:18;22.10;61.10
35463;DHT22;21578;47.892;9.970;2023-05-29T18:54:05;21.90;61.50
35463;DHT22;21578;47.892;9.970;2023-05-29T18:58:53;21.60;61.60
35463;DHT22;21578;47.892;9.970;2023-05-29T19:03:43;21.50;61.40
35463;DHT22;21578;47.892;9.970;2023-05-29T19:08:30;21.30;61.00
35463;DHT22;21578;47.892;9.970;2023-05-29T19:13:17;21.00;61.60
35463;DHT22;21578;47.892;9.970;2023-05-29T19:18:04;20.80;61.60
35463;DHT22;21578;47.892;9.970;2023-05-29T19:22:52;20.70;61.20
35463;DHT22;21578;47.892;9.970;2023-05-29T19:27:39;20.50;61.50
35463;DHT22;21578;47.892;9.970;2023-05-29T19:32:26;20.20;61.90
35463;DHT22;21578;47.892;9.970;2023-05-29T19:37:13;20.10;61.40
35463;DHT22;21578;47.892;9.970;2023-05-29T19:42:02;19.90;61.70
35463;DHT22;21578;47.892;9.970;2023-05-29T19:46:51;19.80;61.30
35463;DHT22;21578;47.892;9.970;2023-05-29T19:51:38;19.70;61.20
35463;DHT22;21578;47.892;9.970;2023-05-29T19:56:25;19.50;61.80
35463;DHT22;21578;47.892;9.970;2023-05-29T20:01:14;19.30;62.10
35463;DHT22;21578;47.892;9.970;2023-05-29T20:06:01;19.20;62.70
35463;DHT22;21578;47.892;9.970;2023-05-29T20:10:48;19.10;62.50
35463;DHT22;21578;47.892;9.970;2023-05-29T20:15:35;19.00;62.10
35463;DHT22;21578;47.892;9.970;2023-05-29T20:20:23;18.90;62.70
35463;DHT22;21578;47.892;9.970;2023-05-29T20:25:11;18.90;62.00
35463;DHT22;21578;47.892;9.970;2023-05-29T20:29:57;18.80;62.20
35463;DHT22;21578;47.892;9.970;2023-05-29T20:34:44;18.60;62.30
35463;DHT22;21578;47.892;9.970;2023-05-29T20:39:33;18.60;62.50
35463;DHT22;21578;47.892;9.970;2023-05-29T20:44:20;18.40;63.00
35463;DHT22;21578;47.892;9.970;2023-05-29T20:49:14;18.30;63.10
35463;DHT22;21578;47.892;9.970;2023-05-29T20:54:02;18.20;63.80
35463;DHT22;21578;47.892;9.970;2023-05-29T20:58:50;18.10;64.70
35463;DHT22;21578;47.892;9.970;2023-05-29T21:03:37;18.00;65.20
35463;DHT22;21578;47.892;9.970;2023-05-29T21:08:24;17.90;65.40
35463;DHT22;21578;47.892;9.970;2023-05-29T21:13:12;17.80;66.20
35463;DHT22;21578;47.892;9.970;2023-05-29T21:18:00;17.70;66.30
35463;DHT22;21578;47.892;9.970;2023-05-29T21:22:47;17.60;67.00
35463;DHT22;21578;47.892;9.970;2023-05-29T21:27:34;17.50;67.50
35463;DHT22;21578;47.892;9.970;2023-05-29T21:32:21;17.40;68.10
35463;DHT22;21578;47.892;9.970;2023-05-29T21:37:09;17.30;68.70
35463;DHT22;21578;47.892;9.970;2023-05-29T21:41:56;17.20;68.60
35463;DHT22;21578;47.892;9.970;2023-05-29T21:46:43;17.10;69.40
35463;DHT22;21578;47.892;9.970;2023-05-29T21:51:32;17.10;69.90
35463;DHT22;21578;47.892;9.970;2023-05-29T21:56:20;16.90;71.20
35463;DHT22;21578;47.892;9.970;2023-05-29T22:01:08;16.80;72.00
35463;DHT22;21578;47.892;9.970;2023-05-29T22:05:55;16.70;72.50
35463;DHT22;21578;47.892;9.970;2023-05-29T22:10:42;16.60;73.40
35463;DHT22;21578;47.892;9.970;2023-05-29T22:15:30;16.40;74.10
35463;DHT22;21578;47.892;9.970;2023-05-29T22:20:17;16.50;73.90
35463;DHT22;21578;47.892;9.970;2023-05-29T22:25:06;16.40;74.70
35463;DHT22;21578;47.892;9.970;2023-05-29T22:29:53;16.40;74.80
35463;DHT22;21578;47.892;9.970;2023-05-29T22:34:42;16.40;75.00
35463;DHT22;21578;47.892;9.970;2023-05-29T22:39:29;16.30;75.40
35463;DHT22;21578;47.892;9.970;2023-05-29T22:44:16;16.10;76.40
35463;DHT22;21578;47.892;9.970;2023-05-29T22:49:03;16.00;77.40
35463;DHT22;21578;47.892;9.970;2023-05-29T22:53:51;15.80;78.10
35463;DHT22;21578;47.892;9.970;2023-05-29T22:58:38;15.70;78.30
35463;DHT22;21578;47.892;9.970;2023-05-29T23:03:25;15.60;78.70
35463;DHT22;21578;47.892;9.970;2023-05-29T23:08:12;15.60;79.00
35463;DHT22;21578;47.892;9.970;2023-05-29T23:13:01;15.50;79.50
35463;DHT22;21578;47.892;9.970;2023-05-29T23:17:48;15.50;79.60
35463;DHT22;21578;47.892;9.970;2023-05-29T23:22:35;15.40;79.80
35463;DHT22;21578;47.892;9.970;2023-05-29T23:27:22;15.40;79.90
35463;DHT22;21578;47.892;9.970;2023-05-29T23:32:11;15.30;80.40
35463;DHT22;21578;47.892;9.970;2023-05-29T23:36:58;15.20;80.80
35463;DHT22;21578;47.892;9.970;2023-05-29T23:41:45;15.10;81.60
35463;DHT22;21578;47.892;9.970;2023-05-29T23:46:32;15.00;81.20
35463;DHT22;21578;47.892;9.970;2023-05-29T23:51:21;15.00;81.10
35463;DHT22;21578;47.892;9.970;2023-05-29T23:56:08;15.00;80.30
